sensor_id;sensor_type;location;lat;lon;timestamp;temperature;humidity
64143;DHT22;50437;51.970;5.904;2023-06-10T00:01:29;22.00;77.50
64143;DHT22;50437;51.970;5.904;2023-06-10T00:03:56;22.00;77.80
64143;DHT22;50437;51.970;5.904;2023-06-10T00:06:22;22.00;77.80
64143;DHT22;50437;51.970;5.904;2023-06-10T00:08:50;21.90;79.40
64143;DHT22;50437;51.970;5.904;2023-06-10T00:11:17;21.90;78.20
64143;DHT22;50437;51.970;5.904;2023-06-10T00:13:43;21.90;78.30
64143;DHT22;50437;51.970;5.904;2023-06-10T00:16:09;21.90;78.00
64143;DHT22;50437;51.970;5.904;2023-06-10T00:18:35;21.80;78.00
64143;DHT22;50437;51.970;5.904;2023-06-10T00:21:04;21.90;78.50
64143;DHT22;50437;51.970;5.904;2023-06-10T00:23:30;21.80;78.90
64143;DHT22;50437;51.970;5.904;2023-06-10T00:26:00;21.70;79.50
64143;DHT22;50437;51.970;5.904;2023-06-10T00:28:26;21.70;79.20
64143;DHT22;50437;51.970;5.904;2023-06-10T00:30:52;21.60;78.90
64143;DHT22;50437;51.970;5.904;2023-06-10T00:33:18;21.50;79.70
64143;DHT22;50437;51.970;5.904;2023-06-10T00:35:44;21.60;79.20
64143;DHT22;50437;51.970;5.904;2023-06-10T00:38:10;21.50;78.50
64143;DHT22;50437;51.970;5.904;2023-06-10T00:40:39;21.40;78.90
64143;DHT22;50437;51.970;5.904;2023-06-10T00:43:07;21.40;79.10
64143;DHT22;50437;51.970;5.904;2023-06-10T00:45:33;21.30;78.20
64143;DHT22;50437;51.970;5.904;2023-06-10T00:47:59;21.40;78.60
64143;DHT22;50437;51.970;5.904;2023-06-10T00:50:29;21.30;78.20
64143;DHT22;50437;51.970;5.904;2023-06-10T00:52:56;21.20;78.60
64143;DHT22;50437;51.970;5.904;2023-06-10T00:55:23;21.20;78.30
64143;DHT22;50437;51.970;5.904;2023-06-10T00:57:50;21.20;78.30
64143;DHT22;50437;51.970;5.904;2023-06-10T01:00:17;21.20;77.80
64143;DHT22;50437;51.970;5.904;2023-06-10T01:02:43;21.10;77.80
64143;DHT22;50437;51.970;5.904;2023-06-10T01:05:09;21.10;78.30
64143;DHT22;50437;51.970;5.904;2023-06-10T01:10:16;21.00;78.50
64143;DHT22;50437;51.970;5.904;2023-06-10T01:15:17;20.90;77.70
64143;DHT22;50437;51.970;5.904;2023-06-10T01:17:55;20.90;77.50
64143;DHT22;50437;51.970;5.904;2023-06-10T01:20:22;20.90;77.00
64143;DHT22;50437;51.970;5.904;2023-06-10T01:22:53;20.80;78.70
64143;DHT22;50437;51.970;5.904;2023-06-10T01:25:24;20.80;78.20
64143;DHT22;50437;51.970;5.904;2023-06-10T01:28:10;20.80;77.50
64143;DHT22;50437;51.970;5.904;2023-06-10T01:31:28;20.70;77.10
64143;DHT22;50437;51.970;5.904;2023-06-10T01:33:31;20.70;77.90
64143;DHT22;50437;51.970;5.904;2023-06-10T01:35:58;20.60;78.40
64143;DHT22;50437;51.970;5.904;2023-06-10T01:38:25;20.60;78.00
64143;DHT22;50437;51.970;5.904;2023-06-10T01:40:52;20.60;78.70
64143;DHT22;50437;51.970;5.904;2023-06-10T01:43:20;20.50;78.70
64143;DHT22;50437;51.970;5.904;2023-06-10T01:45:46;20.50;78.00
64143;DHT22;50437;51.970;5.904;2023-06-10T01:48:12;20.40;77.80
64143;DHT22;50437;51.970;5.904;2023-06-10T01:50:38;20.40;78.00
64143;DHT22;50437;51.970;5.904;2023-06-10T01:53:04;20.30;79.00
64143;DHT22;50437;51.970;5.904;2023-06-10T01:55:34;20.30;77.80
64143;DHT22;50437;51.970;5.904;2023-06-10T01:58:00;20.30;78.60
64143;DHT22;50437;51.970;5.904;2023-06-10T02:00:26;20.30;79.00
64143;DHT22;50437;51.970;5.904;2023-06-10T02:02:52;20.30;79.00
64143;DHT22;50437;51.970;5.904;2023-06-10T02:05:18;20.30;79.40
64143;DHT22;50437;51.970;5.904;2023-06-10T02:07:44;20.20;79.20
64143;DHT22;50437;51.970;5.904;2023-06-10T02:10:13;20.10;79.30
64143;DHT22;50437;51.970;5.904;2023-06-10T02:12:39;20.20;79.40
64143;DHT22;50437;51.970;5.904;2023-06-10T02:15:05;20.20;79.90
64143;DHT22;50437;51.970;5.904;2023-06-10T02:17:50;20.10;80.40
64143;DHT22;50437;51.970;5.904;2023-06-10T02:20:16;20.00;81.40
64143;DHT22;50437;51.970;5.904;2023-06-10T02:22:42;20.00;81.70
64143;DHT22;50437;51.970;5.904;2023-06-10T02:25:09;19.90;82.60
64143;DHT22;50437;51.970;5.904;2023-06-10T02:27:35;19.90;82.60
64143;DHT22;50437;51.970;5.904;2023-06-10T02:30:01;19.90;83.30
64143;DHT22;50437;51.970;5.904;2023-06-10T02:32:29;19.90;84.20
64143;DHT22;50437;51.970;5.904;2023-06-10T02:34:55;19.90;84.20
64143;DHT22;50437;51.970;5.904;2023-06-10T02:37:24;19.80;84.50
64143;DHT22;50437;51.970;5.904;2023-06-10T02:39:50;19.70;85.40
64143;DHT22;50437;51.970;5.904;2023-06-10T02:42:16;19.70;86.20
64143;DHT22;50437;51.970;5.904;2023-06-10T02:44:43;19.70;86.30
64143;DHT22;50437;51.970;5.904;2023-06-10T02:47:16;19.80;86.70
64143;DHT22;50437;51.970;5.904;2023-06-10T02:49:42;19.70;87.20
64143;DHT22;50437;51.970;5.904;2023-06-10T02:52:10;19.70;88.30
64143;DHT22;50437;51.970;5.904;2023-06-10T02:54:38;19.70;89.10
64143;DHT22;50437;51.970;5.904;2023-06-10T02:57:06;19.60;90.00
64143;DHT22;50437;51.970;5.904;2023-06-10T02:59:33;19.60;90.20
64143;DHT22;50437;51.970;5.904;2023-06-10T03:01:59;19.60;90.40
64143;DHT22;50437;51.970;5.904;2023-06-10T03:04:28;19.60;90.70
64143;DHT22;50437;51.970;5.904;2023-06-10T03:07:01;19.50;91.40
64143;DHT22;50437;51.970;5.904;2023-06-10T03:09:32;19.50;91.60
64143;DHT22;50437;51.970;5.904;2023-06-10T03:12:00;19.40;91.80
64143;DHT22;50437;51.970;5.904;2023-06-10T03:14:30;19.40;92.10
64143;DHT22;50437;51.970;5.904;2023-06-10T03:16:56;19.40;92.60
64143;DHT22;50437;51.970;5.904;2023-06-10T03:19:24;19.40;92.30
64143;DHT22;50437;51.970;5.904;2023-06-10T03:22:06;19.40;92.80
64143;DHT22;50437;51.970;5.904;2023-06-10T03:24:36;19.40;92.70
64143;DHT22;50437;51.970;5.904;2023-06-10T03:27:04;19.40;93.40
64143;DHT22;50437;51.970;5.904;2023-06-10T03:29:31;19.40;93.20
64143;DHT22;50437;51.970;5.904;2023-06-10T03:31:58;19.40;93.70
64143;DHT22;50437;51.970;5.904;2023-06-10T03:34:24;19.40;93.90
64143;DHT22;50437;51.970;5.904;2023-06-10T03:36:50;19.30;94.50
64143;DHT22;50437;51.970;5.904;2023-06-10T03:39:17;19.30;94.80
64143;DHT22;50437;51.970;5.904;2023-06-10T03:41:43;19.20;95.00
64143;DHT22;50437;51.970;5.904;2023-06-10T03:44:10;19.20;95.30
64143;DHT22;50437;51.970;5.904;2023-06-10T03:46:36;19.20;96.00
64143;DHT22;50437;51.970;5.904;2023-06-10T03:49:03;19.20;96.00
64143;DHT22;50437;51.970;5.904;2023-06-10T03:51:30;19.20;96.70
64143;DHT22;50437;51.970;5.904;2023-06-10T03:53:56;19.10;96.90
64143;DHT22;50437;51.970;5.904;2023-06-10T03:56:23;19.10;97.10
64143;DHT22;50437;51.970;5.904;2023-06-10T03:58:49;19.20;96.80
64143;DHT22;50437;51.970;5.904;2023-06-10T04:01:15;19.10;97.20
64143;DHT22;50437;51.970;5.904;2023-06-10T04:03:44;19.10;97.80
64143;DHT22;50437;51.970;5.904;2023-06-10T04:06:10;19.10;97.80
64143;DHT22;50437;51.970;5.904;2023-06-10T04:08:36;19.10;98.40
64143;DHT22;50437;51.970;5.904;2023-06-10T04:11:02;19.10;98.50
64143;DHT22;50437;51.970;5.904;2023-06-10T04:13:31;19.10;98.80
64143;DHT22;50437;51.970;5.904;2023-06-10T04:15:59;19.00;99.20
64143;DHT22;50437;51.970;5.904;2023-06-10T04:18:25;19.00;99.20
64143;DHT22;50437;51.970;5.904;2023-06-10T04:20:54;19.10;99.70
64143;DHT22;50437;51.970;5.904;2023-06-10T04:23:21;19.10;99.90
64143;DHT22;50437;51.970;5.904;2023-06-10T04:25:48;19.00;99.90
64143;DHT22;50437;51.970;5.904;2023-06-10T04:28:14;19.00;99.90
64143;DHT22;50437;51.970;5.904;2023-06-10T04:30:41;19.10;99.90
64143;DHT22;50437;51.970;5.904;2023-06-10T04:33:08;19.00;99.90
64143;DHT22;50437;51.970;5.904;2023-06-10T04:35:35;19.10;99.90
64143;DHT22;50437;51.970;5.904;2023-06-10T04:38:03;19.00;99.90
64143;DHT22;50437;51.970;5.904;2023-06-10T04:40:30;18.90;99.90
64143;DHT22;50437;51.970;5.904;2023-06-10T04:42:59;19.00;99.90
64143;DHT22;50437;51.970;5.904;2023-06-10T04:45:25;19.10;99.90
64143;DHT22;50437;51.970;5.904;2023-06-10T04:47:51;19.00;99.90
64143;DHT22;50437;51.970;5.904;2023-06-10T04:50:18;19.10;99.90
64143;DHT22;50437;51.970;5.904;2023-06-10T04:52:44;19.00;99.90
64143;DHT22;50437;51.970;5.904;2023-06-10T04:55:12;19.00;99.90
64143;DHT22;50437;51.970;5.904;2023-06-10T04:57:38;19.10;99.90
64143;DHT22;50437;51.970;5.904;2023-06-10T05:00:04;19.10;99.90
64143;DHT22;50437;51.970;5.904;2023-06-10T05:02:31;19.20;99.90
64143;DHT22;50437;51.970;5.904;2023-06-10T05:04:58;19.10;99.90
64143;DHT22;50437;51.970;5.904;2023-06-10T05:07:24;19.10;99.90
64143;DHT22;50437;51.970;5.904;2023-06-10T05:09:50;19.20;99.90
64143;DHT22;50437;51.970;5.904;2023-06-10T05:12:16;19.20;99.90
64143;DHT22;50437;51.970;5.904;2023-06-10T05:14:42;19.20;99.90
64143;DHT22;50437;51.970;5.904;2023-06-10T05:17:08;19.20;99.90
64143;DHT22;50437;51.970;5.904;2023-06-10T05:19:34;19.30;99.90
64143;DHT22;50437;51.970;5.904;2023-06-10T05:22:02;19.30;99.90
64143;DHT22;50437;51.970;5.904;2023-06-10T05:24:28;19.30;99.90
64143;DHT22;50437;51.970;5.904;2023-06-10T05:26:54;19.30;99.90
64143;DHT22;50437;51.970;5.904;2023-06-10T05:29:20;19.30;99.90
64143;DHT22;50437;51.970;5.904;2023-06-10T05:31:46;19.30;99.90
64143;DHT22;50437;51.970;5.904;2023-06-10T05:34:12;19.50;99.90
64143;DHT22;50437;51.970;5.904;2023-06-10T05:36:38;19.50;99.90
64143;DHT22;50437;51.970;5.904;2023-06-10T05:39:04;19.50;99.90
64143;DHT22;50437;51.970;5.904;2023-06-10T05:41:30;19.50;99.90
64143;DHT22;50437;51.970;5.904;2023-06-10T05:43:56;19.50;99.90
64143;DHT22;50437;51.970;5.904;2023-06-10T05:46:23;19.60;99.90
64143;DHT22;50437;51.970;5.904;2023-06-10T05:48:49;19.60;99.90
64143;DHT22;50437;51.970;5.904;2023-06-10T05:51:15;19.70;99.90
64143;DHT22;50437;51.970;5.904;2023-06-10T05:53:41;19.70;99.90
64143;DHT22;50437;51.970;5.904;2023-06-10T05:56:07;19.80;99.90
64143;DHT22;50437;51.970;5.904;2023-06-10T05:58:33;19.80;99.90
64143;DHT22;50437;51.970;5.904;2023-06-10T06:00:59;19.80;99.90
64143;DHT22;50437;51.970;5.904;2023-06-10T06:03:26;19.90;99.90
64143;DHT22;50437;51.970;5.904;2023-06-10T06:05:53;19.90;99.90
64143;DHT22;50437;51.970;5.904;2023-06-10T06:08:19;20.00;99.90
64143;DHT22;50437;51.970;5.904;2023-06-10T06:10:46;20.10;99.90
64143;DHT22;50437;51.970;5.904;2023-06-10T06:13:15;20.20;99.90
64143;DHT22;50437;51.970;5.904;2023-06-10T06:15:42;20.20;99.90
64143;DHT22;50437;51.970;5.904;2023-06-10T06:18:08;20.30;99.90
64143;DHT22;50437;51.970;5.904;2023-06-10T06:20:34;20.30;99.90
64143;DHT22;50437;51.970;5.904;2023-06-10T06:23:01;20.40;99.90
64143;DHT22;50437;51.970;5.904;2023-06-10T06:25:27;20.50;99.90
64143;DHT22;50437;51.970;5.904;2023-06-10T06:27:53;21.30;99.50
64143;DHT22;50437;51.970;5.904;2023-06-10T06:30:19;23.60;95.10
64143;DHT22;50437;51.970;5.904;2023-06-10T06:32:45;25.20;91.20
64143;DHT22;50437;51.970;5.904;2023-06-10T06:35:12;26.00;87.70
64143;DHT22;50437;51.970;5.904;2023-06-10T06:37:38;26.70;86.30
64143;DHT22;50437;51.970;5.904;2023-06-10T06:40:16;27.40;81.90
64143;DHT22;50437;51.970;5.904;2023-06-10T06:42:42;27.60;79.60
64143;DHT22;50437;51.970;5.904;2023-06-10T06:45:29;27.80;78.60
64143;DHT22;50437;51.970;5.904;2023-06-10T06:47:55;27.60;78.60
64143;DHT22;50437;51.970;5.904;2023-06-10T06:50:21;28.20;78.00
64143;DHT22;50437;51.970;5.904;2023-06-10T06:52:48;28.50;75.40
64143;DHT22;50437;51.970;5.904;2023-06-10T06:55:14;29.10;74.50
64143;DHT22;50437;51.970;5.904;2023-06-10T06:57:40;28.50;74.50
64143;DHT22;50437;51.970;5.904;2023-06-10T07:00:06;28.60;72.20
64143;DHT22;50437;51.970;5.904;2023-06-10T07:02:35;28.10;73.80
64143;DHT22;50437;51.970;5.904;2023-06-10T07:05:01;28.30;74.00
64143;DHT22;50437;51.970;5.904;2023-06-10T07:07:27;28.20;73.00
64143;DHT22;50437;51.970;5.904;2023-06-10T07:09:53;28.60;73.10
64143;DHT22;50437;51.970;5.904;2023-06-10T07:12:19;28.70;70.00
64143;DHT22;50437;51.970;5.904;2023-06-10T07:14:50;28.80;71.00
64143;DHT22;50437;51.970;5.904;2023-06-10T07:17:17;28.50;70.40
64143;DHT22;50437;51.970;5.904;2023-06-10T07:19:44;28.60;70.90
64143;DHT22;50437;51.970;5.904;2023-06-10T07:22:10;29.20;70.20
64143;DHT22;50437;51.970;5.904;2023-06-10T07:24:36;29.70;67.80
64143;DHT22;50437;51.970;5.904;2023-06-10T07:27:02;29.20;68.50
64143;DHT22;50437;51.970;5.904;2023-06-10T07:29:28;29.40;67.00
64143;DHT22;50437;51.970;5.904;2023-06-10T07:31:54;29.80;66.70
64143;DHT22;50437;51.970;5.904;2023-06-10T07:34:20;30.60;65.30
64143;DHT22;50437;51.970;5.904;2023-06-10T07:36:47;30.50;65.30
64143;DHT22;50437;51.970;5.904;2023-06-10T07:39:13;30.10;64.20
64143;DHT22;50437;51.970;5.904;2023-06-10T07:41:39;30.50;63.70
64143;DHT22;50437;51.970;5.904;2023-06-10T07:44:05;30.30;64.70
64143;DHT22;50437;51.970;5.904;2023-06-10T07:46:31;30.80;62.90
64143;DHT22;50437;51.970;5.904;2023-06-10T07:48:57;31.50;62.80
64143;DHT22;50437;51.970;5.904;2023-06-10T07:51:23;30.80;63.30
64143;DHT22;50437;51.970;5.904;2023-06-10T07:53:49;31.00;64.10
64143;DHT22;50437;51.970;5.904;2023-06-10T07:56:16;31.10;61.60
64143;DHT22;50437;51.970;5.904;2023-06-10T07:58:42;31.40;59.80
64143;DHT22;50437;51.970;5.904;2023-06-10T08:01:08;31.60;61.30
64143;DHT22;50437;51.970;5.904;2023-06-10T08:03:34;32.00;63.10
64143;DHT22;50437;51.970;5.904;2023-06-10T08:06:03;32.30;59.90
64143;DHT22;50437;51.970;5.904;2023-06-10T08:08:29;32.10;60.60
64143;DHT22;50437;51.970;5.904;2023-06-10T08:10:55;32.20;60.30
64143;DHT22;50437;51.970;5.904;2023-06-10T08:13:21;32.00;59.20
64143;DHT22;50437;51.970;5.904;2023-06-10T08:15:47;31.50;58.80
64143;DHT22;50437;51.970;5.904;2023-06-10T08:18:16;31.60;58.70
64143;DHT22;50437;51.970;5.904;2023-06-10T08:20:42;31.40;58.10
64143;DHT22;50437;51.970;5.904;2023-06-10T08:23:08;31.80;61.40
64143;DHT22;50437;51.970;5.904;2023-06-10T08:25:34;32.40;57.90
64143;DHT22;50437;51.970;5.904;2023-06-10T08:28:00;32.70;58.20
64143;DHT22;50437;51.970;5.904;2023-06-10T08:30:27;32.20;57.70
64143;DHT22;50437;51.970;5.904;2023-06-10T08:32:53;32.90;59.50
64143;DHT22;50437;51.970;5.904;2023-06-10T08:35:19;32.20;58.20
64143;DHT22;50437;51.970;5.904;2023-06-10T08:37:45;32.60;58.40
64143;DHT22;50437;51.970;5.904;2023-06-10T08:40:11;32.40;58.70
64143;DHT22;50437;51.970;5.904;2023-06-10T08:42:39;32.50;56.30
64143;DHT22;50437;51.970;5.904;2023-06-10T08:45:06;32.60;58.30
64143;DHT22;50437;51.970;5.904;2023-06-10T08:47:33;32.30;54.40
64143;DHT22;50437;51.970;5.904;2023-06-10T08:50:04;32.00;56.20
64143;DHT22;50437;51.970;5.904;2023-06-10T08:52:37;32.00;56.00
64143;DHT22;50437;51.970;5.904;2023-06-10T08:57:38;32.10;55.40
64143;DHT22;50437;51.970;5.904;2023-06-10T09:00:04;32.40;55.20
64143;DHT22;50437;51.970;5.904;2023-06-10T09:02:31;32.00;56.20
64143;DHT22;50437;51.970;5.904;2023-06-10T09:05:01;32.10;56.60
64143;DHT22;50437;51.970;5.904;2023-06-10T09:07:27;32.40;55.40
64143;DHT22;50437;51.970;5.904;2023-06-10T09:09:57;32.40;56.30
64143;DHT22;50437;51.970;5.904;2023-06-10T09:12:25;32.60;54.70
64143;DHT22;50437;51.970;5.904;2023-06-10T09:14:51;32.40;53.60
64143;DHT22;50437;51.970;5.904;2023-06-10T09:17:17;32.40;54.20
64143;DHT22;50437;51.970;5.904;2023-06-10T09:19:43;32.10;56.10
64143;DHT22;50437;51.970;5.904;2023-06-10T09:22:10;32.70;52.70
64143;DHT22;50437;51.970;5.904;2023-06-10T09:24:36;32.80;53.20
64143;DHT22;50437;51.970;5.904;2023-06-10T09:27:07;33.30;52.50
64143;DHT22;50437;51.970;5.904;2023-06-10T09:29:53;33.20;52.80
64143;DHT22;50437;51.970;5.904;2023-06-10T09:32:22;33.30;50.90
64143;DHT22;50437;51.970;5.904;2023-06-10T09:34:52;32.90;52.80
64143;DHT22;50437;51.970;5.904;2023-06-10T09:37:22;32.10;54.30
64143;DHT22;50437;51.970;5.904;2023-06-10T09:40:04;32.90;53.10
64143;DHT22;50437;51.970;5.904;2023-06-10T09:42:38;33.50;52.30
64143;DHT22;50437;51.970;5.904;2023-06-10T09:45:05;33.20;52.70
64143;DHT22;50437;51.970;5.904;2023-06-10T09:47:31;33.30;51.00
64143;DHT22;50437;51.970;5.904;2023-06-10T09:49:57;33.20;49.90
64143;DHT22;50437;51.970;5.904;2023-06-10T09:52:24;33.30;52.30
64143;DHT22;50437;51.970;5.904;2023-06-10T09:54:54;33.20;52.70
64143;DHT22;50437;51.970;5.904;2023-06-10T09:57:21;33.60;51.30
64143;DHT22;50437;51.970;5.904;2023-06-10T09:59:47;33.40;49.70
64143;DHT22;50437;51.970;5.904;2023-06-10T10:02:13;33.10;48.80
64143;DHT22;50437;51.970;5.904;2023-06-10T10:04:40;32.90;48.70
64143;DHT22;50437;51.970;5.904;2023-06-10T10:07:06;32.50;50.00
64143;DHT22;50437;51.970;5.904;2023-06-10T10:09:35;32.80;48.90
64143;DHT22;50437;51.970;5.904;2023-06-10T10:12:01;32.40;49.80
64143;DHT22;50437;51.970;5.904;2023-06-10T10:14:28;32.80;50.10
64143;DHT22;50437;51.970;5.904;2023-06-10T10:16:57;33.10;48.60
64143;DHT22;50437;51.970;5.904;2023-06-10T10:19:27;33.00;48.80
64143;DHT22;50437;51.970;5.904;2023-06-10T10:21:55;33.50;49.30
64143;DHT22;50437;51.970;5.904;2023-06-10T10:24:26;33.50;47.80
64143;DHT22;50437;51.970;5.904;2023-06-10T10:26:57;33.50;49.20
64143;DHT22;50437;51.970;5.904;2023-06-10T10:31:51;33.10;48.00
64143;DHT22;50437;51.970;5.904;2023-06-10T10:34:25;33.20;47.50
64143;DHT22;50437;51.970;5.904;2023-06-10T10:36:53;33.50;48.70
64143;DHT22;50437;51.970;5.904;2023-06-10T10:39:20;33.80;47.30
64143;DHT22;50437;51.970;5.904;2023-06-10T10:41:46;34.60;47.60
64143;DHT22;50437;51.970;5.904;2023-06-10T10:44:13;35.40;46.00
64143;DHT22;50437;51.970;5.904;2023-06-10T10:46:43;34.50;44.50
64143;DHT22;50437;51.970;5.904;2023-06-10T10:49:10;34.20;46.70
64143;DHT22;50437;51.970;5.904;2023-06-10T10:51:37;34.30;45.30
64143;DHT22;50437;51.970;5.904;2023-06-10T10:54:20;34.50;43.60
64143;DHT22;50437;51.970;5.904;2023-06-10T11:04:57;34.30;44.20
64143;DHT22;50437;51.970;5.904;2023-06-10T11:07:24;34.40;43.30
64143;DHT22;50437;51.970;5.904;2023-06-10T11:09:57;34.40;44.00
64143;DHT22;50437;51.970;5.904;2023-06-10T11:12:25;34.20;45.60
64143;DHT22;50437;51.970;5.904;2023-06-10T11:14:54;34.20;44.70
64143;DHT22;50437;51.970;5.904;2023-06-10T11:17:21;34.00;41.80
64143;DHT22;50437;51.970;5.904;2023-06-10T11:19:47;34.40;42.70
64143;DHT22;50437;51.970;5.904;2023-06-10T11:22:17;33.60;39.90
64143;DHT22;50437;51.970;5.904;2023-06-10T11:24:49;33.30;41.60
64143;DHT22;50437;51.970;5.904;2023-06-10T11:27:20;34.10;42.40
64143;DHT22;50437;51.970;5.904;2023-06-10T11:32:23;34.20;43.80
64143;DHT22;50437;51.970;5.904;2023-06-10T11:34:52;33.80;43.90
64143;DHT22;50437;51.970;5.904;2023-06-10T11:37:19;33.70;42.40
64143;DHT22;50437;51.970;5.904;2023-06-10T11:39:45;33.40;39.40
64143;DHT22;50437;51.970;5.904;2023-06-10T11:42:12;33.90;41.70
64143;DHT22;50437;51.970;5.904;2023-06-10T11:44:38;33.80;42.00
64143;DHT22;50437;51.970;5.904;2023-06-10T11:47:04;33.90;42.30
64143;DHT22;50437;51.970;5.904;2023-06-10T11:49:30;33.60;42.40
64143;DHT22;50437;51.970;5.904;2023-06-10T11:51:56;33.60;42.00
64143;DHT22;50437;51.970;5.904;2023-06-10T11:54:22;33.90;41.80
64143;DHT22;50437;51.970;5.904;2023-06-10T11:56:49;33.70;40.90
64143;DHT22;50437;51.970;5.904;2023-06-10T11:59:15;33.40;40.30
64143;DHT22;50437;51.970;5.904;2023-06-10T12:01:42;33.40;42.80
64143;DHT22;50437;51.970;5.904;2023-06-10T12:04:14;33.40;40.90
64143;DHT22;50437;51.970;5.904;2023-06-10T12:06:42;33.30;40.90
64143;DHT22;50437;51.970;5.904;2023-06-10T12:09:19;32.80;42.20
64143;DHT22;50437;51.970;5.904;2023-06-10T12:11:48;33.00;41.70
64143;DHT22;50437;51.970;5.904;2023-06-10T12:14:14;33.30;39.90
64143;DHT22;50437;51.970;5.904;2023-06-10T12:16:40;33.20;40.40
64143;DHT22;50437;51.970;5.904;2023-06-10T12:19:13;33.50;43.50
64143;DHT22;50437;51.970;5.904;2023-06-10T12:21:39;33.40;45.30
64143;DHT22;50437;51.970;5.904;2023-06-10T12:24:06;33.70;42.70
64143;DHT22;50437;51.970;5.904;2023-06-10T12:29:13;33.60;40.10
64143;DHT22;50437;51.970;5.904;2023-06-10T12:31:54;33.70;40.20
64143;DHT22;50437;51.970;5.904;2023-06-10T12:34:28;33.70;41.00
64143;DHT22;50437;51.970;5.904;2023-06-10T12:36:55;33.60;41.80
64143;DHT22;50437;51.970;5.904;2023-06-10T12:39:21;33.50;41.90
64143;DHT22;50437;51.970;5.904;2023-06-10T12:41:47;33.60;40.20
64143;DHT22;50437;51.970;5.904;2023-06-10T12:44:14;33.50;39.30
64143;DHT22;50437;51.970;5.904;2023-06-10T12:46:43;33.50;41.30
64143;DHT22;50437;51.970;5.904;2023-06-10T12:49:18;33.20;40.60
64143;DHT22;50437;51.970;5.904;2023-06-10T12:51:44;33.30;38.90
64143;DHT22;50437;51.970;5.904;2023-06-10T12:54:10;32.90;40.10
64143;DHT22;50437;51.970;5.904;2023-06-10T12:56:36;33.30;42.10
64143;DHT22;50437;51.970;5.904;2023-06-10T12:59:03;33.30;41.00
64143;DHT22;50437;51.970;5.904;2023-06-10T13:01:29;33.40;40.20
64143;DHT22;50437;51.970;5.904;2023-06-10T13:03:57;33.60;40.90
64143;DHT22;50437;51.970;5.904;2023-06-10T13:06:23;33.60;40.80
64143;DHT22;50437;51.970;5.904;2023-06-10T13:08:49;33.40;40.20
64143;DHT22;50437;51.970;5.904;2023-06-10T13:11:17;33.30;39.70
64143;DHT22;50437;51.970;5.904;2023-06-10T13:13:44;33.20;40.70
64143;DHT22;50437;51.970;5.904;2023-06-10T13:16:10;33.10;40.90
64143;DHT22;50437;51.970;5.904;2023-06-10T13:18:36;33.10;40.90
64143;DHT22;50437;51.970;5.904;2023-06-10T13:21:03;33.10;39.10
64143;DHT22;50437;51.970;5.904;2023-06-10T13:23:29;32.90;40.00
64143;DHT22;50437;51.970;5.904;2023-06-10T13:25:57;33.10;40.50
64143;DHT22;50437;51.970;5.904;2023-06-10T13:28:23;33.00;39.60
64143;DHT22;50437;51.970;5.904;2023-06-10T13:30:49;33.20;38.60
64143;DHT22;50437;51.970;5.904;2023-06-10T13:33:16;33.00;42.30
64143;DHT22;50437;51.970;5.904;2023-06-10T13:35:42;33.10;38.80
64143;DHT22;50437;51.970;5.904;2023-06-10T13:38:08;32.90;39.60
64143;DHT22;50437;51.970;5.904;2023-06-10T13:40:34;32.80;40.90
64143;DHT22;50437;51.970;5.904;2023-06-10T13:43:00;32.90;40.50
64143;DHT22;50437;51.970;5.904;2023-06-10T13:45:26;33.10;38.60
64143;DHT22;50437;51.970;5.904;2023-06-10T13:47:53;33.10;39.60
64143;DHT22;50437;51.970;5.904;2023-06-10T13:50:19;32.90;39.50
64143;DHT22;50437;51.970;5.904;2023-06-10T13:52:45;32.60;40.10
64143;DHT22;50437;51.970;5.904;2023-06-10T13:55:13;32.70;41.10
64143;DHT22;50437;51.970;5.904;2023-06-10T13:57:40;33.10;43.00
64143;DHT22;50437;51.970;5.904;2023-06-10T14:00:07;33.20;39.90
64143;DHT22;50437;51.970;5.904;2023-06-10T14:02:33;33.10;39.60
64143;DHT22;50437;51.970;5.904;2023-06-10T14:04:59;32.80;40.20
64143;DHT22;50437;51.970;5.904;2023-06-10T14:07:25;32.70;39.00
64143;DHT22;50437;51.970;5.904;2023-06-10T14:09:51;33.00;40.50
64143;DHT22;50437;51.970;5.904;2023-06-10T14:12:18;33.30;39.70
64143;DHT22;50437;51.970;5.904;2023-06-10T14:14:44;33.30;39.80
64143;DHT22;50437;51.970;5.904;2023-06-10T14:17:11;33.30;40.40
64143;DHT22;50437;51.970;5.904;2023-06-10T14:19:37;33.00;39.40
64143;DHT22;50437;51.970;5.904;2023-06-10T14:22:03;33.10;39.90
64143;DHT22;50437;51.970;5.904;2023-06-10T14:24:29;32.90;38.90
64143;DHT22;50437;51.970;5.904;2023-06-10T14:26:55;33.10;39.30
64143;DHT22;50437;51.970;5.904;2023-06-10T14:29:24;33.00;37.80
64143;DHT22;50437;51.970;5.904;2023-06-10T14:31:50;32.60;38.40
64143;DHT22;50437;51.970;5.904;2023-06-10T14:34:16;32.90;39.80
64143;DHT22;50437;51.970;5.904;2023-06-10T14:36:42;33.00;38.80
64143;DHT22;50437;51.970;5.904;2023-06-10T14:39:09;32.90;37.50
64143;DHT22;50437;51.970;5.904;2023-06-10T14:41:38;32.80;39.30
64143;DHT22;50437;51.970;5.904;2023-06-10T14:44:04;33.00;38.60
64143;DHT22;50437;51.970;5.904;2023-06-10T14:46:31;33.10;39.80
64143;DHT22;50437;51.970;5.904;2023-06-10T14:48:57;33.00;39.20
64143;DHT22;50437;51.970;5.904;2023-06-10T14:51:25;32.80;38.50
64143;DHT22;50437;51.970;5.904;2023-06-10T14:53:51;32.90;39.80
64143;DHT22;50437;51.970;5.904;2023-06-10T14:56:17;33.10;38.80
64143;DHT22;50437;51.970;5.904;2023-06-10T14:58:43;33.10;38.60
64143;DHT22;50437;51.970;5.904;2023-06-10T15:01:10;33.30;38.80
64143;DHT22;50437;51.970;5.904;2023-06-10T15:03:38;33.00;38.20
64143;DHT22;50437;51.970;5.904;2023-06-10T15:06:04;33.00;37.50
64143;DHT22;50437;51.970;5.904;2023-06-10T15:08:31;32.70;38.20
64143;DHT22;50437;51.970;5.904;2023-06-10T15:11:00;32.80;38.50
64143;DHT22;50437;51.970;5.904;2023-06-10T15:13:28;32.70;37.60
64143;DHT22;50437;51.970;5.904;2023-06-10T15:15:57;32.50;38.40
64143;DHT22;50437;51.970;5.904;2023-06-10T15:18:23;32.70;38.50
64143;DHT22;50437;51.970;5.904;2023-06-10T15:20:49;32.50;38.60
64143;DHT22;50437;51.970;5.904;2023-06-10T15:23:15;32.40;39.50
64143;DHT22;50437;51.970;5.904;2023-06-10T15:25:42;32.60;38.80
64143;DHT22;50437;51.970;5.904;2023-06-10T15:28:09;32.60;39.20
64143;DHT22;50437;51.970;5.904;2023-06-10T15:30:35;32.70;39.50
64143;DHT22;50437;51.970;5.904;2023-06-10T15:33:03;32.60;39.60
64143;DHT22;50437;51.970;5.904;2023-06-10T15:35:29;32.70;40.00
64143;DHT22;50437;51.970;5.904;2023-06-10T15:37:57;32.50;38.40
64143;DHT22;50437;51.970;5.904;2023-06-10T15:40:25;32.70;39.00
64143;DHT22;50437;51.970;5.904;2023-06-10T15:42:54;32.70;39.10
64143;DHT22;50437;51.970;5.904;2023-06-10T15:45:21;32.40;39.00
64143;DHT22;50437;51.970;5.904;2023-06-10T15:47:49;32.20;38.70
64143;DHT22;50437;51.970;5.904;2023-06-10T15:50:16;32.30;40.00
64143;DHT22;50437;51.970;5.904;2023-06-10T15:52:42;32.30;38.90
64143;DHT22;50437;51.970;5.904;2023-06-10T15:55:08;32.30;38.60